x

Destruction Island, Wa (desw1) Weather Station

8:00 - Sun 20th Apr 2014 All times are PDT. -7 hours from GMT.

  • Wind
    15mph, 17mph gusts
  • Ar Temp 47°f
  • Sea Pressure 1023.9mb
  • Destruction Island, Wa
  • Destruction Island, Wa

More Historic Weather Station data

Upgrade to MSW Pro to gain access to the past 30 days of data for over 8000 Wavebouys and Weather Stations around the globe.

Join Pro

Comparision Forecast

View Surf forecast
   
Dom 04/20 8:00 15 17 mph 1023.9mb 47f
7:00 17 20 mph 1023.7mb 47f
6:00 17 20 mph 1023.5mb 47f
5:00 16
mph
1023.7mb 47f
4:00 7 8 mph 1023.8mb 49f
3:00 9 10 mph 1023.5mb 48f
2:00 15 16 mph 1022.9mb 48f
1:00 11 13 mph 1022.7mb 49f
12:00 13 14 mph 1022.1mb 49f
Sáb 04/19 11:00 14 15 mph 1021.2mb 49f
10:00 20 21 mph 1020.4mb 49f
9:00 15 16 mph 1019.3mb 49f
8:00 16 18 mph 1018.3mb 46f
7:00 17 18 mph 1017.1mb 49f
6:00 29 32 mph 1015.5mb 50f
5:00 23 26 mph 1014.3mb 50f
4:00 22 24 mph 1013.2mb 48f
3:00 24 26 mph 1011.9mb 49f
2:00 22 25 mph 1010.4mb 50f
1:00 23 26 mph 1009.3mb 48f
12:00 30 33 mph 1008.1mb 47f
11:00 36 41 mph 1006.4mb 45f
10:00 34 37 mph 1006.3mb 45f
9:00 29 31 mph 1007mb 47f
8:00 29 33 mph 1007.1mb 51f
7:00 28 30 mph 1005.8mb 52f
6:00 30 32 mph 1005.5mb 52f
5:00 22 24 mph 1006.8mb 52f
4:00 6 7 mph 1007.4mb 50f
3:00 7 8 mph 1008.4mb 51f
2:00 9 10 mph 1009mb 47f
1:00 8 9 mph 1010.1mb 46f
12:00 10 11 mph 1010.8mb 47f
Sex 04/18 11:00 13 14 mph 1011.8mb 48f
10:00 11 13 mph 1012.9mb 47f
9:00 9
mph
1014mb 48f
8:00 6
mph
1014.9mb 48f
7:00 2 3 mph 1016mb 49f
6:00 5
mph
1017.4mb 49f
5:00 3 5 mph 1018.4mb 50f
4:00 7 8 mph 1019.4mb 50f
3:00 10 11 mph 1019.7mb 50f
2:00 9 10 mph 1020.1mb 50f
1:00 5 8 mph 1020.2mb 50f
12:00 8 10 mph 1020.5mb 49f
11:00 9 11 mph 1020.5mb 47f
10:00 8 9 mph 1020.1mb 47f
9:00 6 7 mph 1019.7mb 47f
8:00 8 10 mph 1019.3mb 45f
7:00 13 15 mph 1018.7mb 47f
6:00 13 14 mph 1018mb 47f
5:00 11 14 mph 1017.8mb 46f
4:00 14 15 mph 1017.1mb 47f
3:00 18 21 mph 1016.6mb 47f
2:00 18 21 mph 1016.2mb 47f
1:00 16 17 mph 1015.8mb 46f
12:00 25 28 mph 1014.7mb 47f
Qui 04/17 11:00 23 25 mph 1014.1mb 47f
10:00 14 15 mph 1013.6mb 46f
9:00 21 23 mph 1012.5mb 48f
8:00 26 29 mph 1011mb 48f
7:00 20 22 mph 1010.3mb 47f
6:00 20 22 mph 1009.6mb 47f
5:00 25 28 mph 1008.3mb 46f
4:00 37 40 mph 1006.8mb 46f
3:00 25 33 mph 1006.7mb 49f
2:00 29 34 mph 1007.1mb 49f
1:00 28 31 mph 1007.5mb 49f
12:00 25 29 mph 1007.9mb 49f
11:00 21 22 mph 1008.6mb 49f
10:00 25 29 mph 1008.9mb 49f
9:00 14 15 mph 1009.6mb 49f
8:00 14 15 mph 1010.1mb 49f
7:00 18 21 mph 1010.2mb 50f
6:00 18 21 mph 1010.2mb 50f
5:00 20 23 mph 1010.7mb 49f
4:00 15 16 mph 1011.2mb 49f
3:00 13 15 mph 1011.8mb 49f
2:00 14 15 mph 1012.4mb 49f
1:00 11
mph
1013.2mb 50f
12:00 11
mph
1013.5mb 50f
Qua 04/16 11:00 17 18 mph 1013.1mb 50f
10:00 17 20 mph 1013.6mb 50f
9:00 18 22 mph 1013.7mb 50f
8:00 16 18 mph 1013.8mb 50f
7:00 14 16 mph 1014.5mb 50f
6:00 13 15 mph 1015.1mb 50f
5:00 9 11 mph 1015.7mb 50f